Time;durP1;ratioP1;P1;durP2;ratioP2;P2;SDS_P1;SDS_P2;PMS_P1;PMS_P2;Temp;Humidity;BMP_temperature;BMP_pressure;BME280_temperature;BME280_humidity;BME280_pressure;Samples;Min_cycle;Max_cycle;Signal;HPM_P1;HPM_P2
2024/01/09 00:01:59;;;;;;;11.20;10.17;;;;;;;;;;2617822;54;20418;-78
2024/01/09 00:07:29;;;;;;;10.37;9.67;;;;;;;;;;2618898;54;20411;-77
2024/01/09 00:12:59;;;;;;;10.57;9.87;;;;;;;;;;2617176;54;20410;-79
2024/01/09 00:18:29;;;;;;;10.97;10.07;;;;;;;;;;2614196;54;20930;-76
2024/01/09 00:24:00;;;;;;;11.07;10.07;;;;;;;;;;2615859;54;20940;-78
2024/01/09 00:29:32;;;;;;;9.80;9.17;;;;;;;;;;2618118;54;20377;-78
2024/01/09 00:35:01;;;;;;;15.00;11.77;;;;;;;;;;2618076;54;20370;-78
2024/01/09 00:40:31;;;;;;;10.67;9.87;;;;;;;;;;2617446;54;20464;-80
2024/01/09 00:46:01;;;;;;;10.23;9.50;;;;;;;;;;2617576;54;20428;-81
2024/01/09 00:57:39;;;;;;;10.40;9.47;;;;;;;;;;2617393;54;20409;-79
2024/01/09 01:03:09;;;;;;;10.03;9.10;;;;;;;;;;2618964;54;20370;-77
2024/01/09 01:08:38;;;;;;;8.80;8.10;;;;;;;;;;2616894;54;20391;-78
2024/01/09 01:14:08;;;;;;;10.23;9.53;;;;;;;;;;2617929;54;20908;-78
2024/01/09 01:19:38;;;;;;;9.80;9.20;;;;;;;;;;2617066;54;20914;-80
2024/01/09 01:25:09;;;;;;;10.33;9.67;;;;;;;;;;2618005;54;20385;-77
2024/01/09 01:30:41;;;;;;;11.43;10.63;;;;;;;;;;2615998;54;20400;-80
2024/01/09 01:36:14;;;;;;;10.93;10.13;;;;;;;;;;2616081;54;20401;-78
2024/01/09 01:41:44;;;;;;;9.10;8.57;;;;;;;;;;2617008;54;20354;-79
2024/01/09 01:47:15;;;;;;;9.33;8.67;;;;;;;;;;2615456;54;20486;-75
2024/01/09 01:58:52;;;;;;;11.37;10.47;;;;;;;;;;2614998;54;20392;-77
2024/01/09 02:04:21;;;;;;;10.27;9.60;;;;;;;;;;2614826;54;20407;-76
2024/01/09 02:09:53;;;;;;;10.63;9.87;;;;;;;;;;2614714;54;20414;-75
2024/01/09 02:15:23;;;;;;;10.33;9.60;;;;;;;;;;2615466;54;20690;-80
2024/01/09 02:20:53;;;;;;;12.03;11.20;;;;;;;;;;2614556;54;20374;-79
2024/01/09 02:32:19;;;;;;;10.97;9.63;;;;;;;;;;2615004;39;20833;-80
2024/01/09 02:37:48;;;;;;;10.70;9.90;;;;;;;;;;2614395;54;21050;-78
2024/01/09 02:43:18;;;;;;;10.20;9.50;;;;;;;;;;2615222;39;20876;-79
2024/01/09 02:48:49;;;;;;;10.70;10.00;;;;;;;;;;2614017;54;20366;-79
2024/01/09 02:54:19;;;;;;;10.13;9.33;;;;;;;;;;2614008;54;20502;-78
2024/01/09 02:59:49;;;;;;;10.30;9.37;;;;;;;;;;2613725;54;20407;-77
2024/01/09 03:05:18;;;;;;;10.47;9.53;;;;;;;;;;2614112;54;20378;-79
2024/01/09 03:10:48;;;;;;;10.87;9.73;;;;;;;;;;2614493;54;21229;-77
2024/01/09 03:16:19;;;;;;;11.00;10.10;;;;;;;;;;2613636;39;20733;-78
2024/01/09 03:21:49;;;;;;;10.10;9.20;;;;;;;;;;2613827;54;20375;-79
2024/01/09 03:27:20;;;;;;;10.73;10.00;;;;;;;;;;2613513;54;20356;-74
2024/01/09 03:32:49;;;;;;;10.27;9.37;;;;;;;;;;2612986;54;20379;-76
2024/01/09 03:38:19;;;;;;;9.10;8.23;;;;;;;;;;2613715;54;20399;-74
2024/01/09 03:43:49;;;;;;;10.97;10.03;;;;;;;;;;2613881;54;20386;-75
2024/01/09 03:49:18;;;;;;;10.07;9.30;;;;;;;;;;2613617;39;20765;-75
2024/01/09 03:55:04;;;;;;;9.43;8.70;;;;;;;;;;2613355;54;21021;-77
2024/01/09 04:00:33;;;;;;;10.53;9.70;;;;;;;;;;2612331;54;20468;-74
2024/01/09 04:06:02;;;;;;;10.73;9.93;;;;;;;;;;2613885;54;20429;-79
2024/01/09 04:11:32;;;;;;;10.07;9.37;;;;;;;;;;2616395;54;20401;-79
2024/01/09 04:17:01;;;;;;;10.00;9.17;;;;;;;;;;2616137;54;20372;-79
2024/01/09 04:22:31;;;;;;;11.27;10.47;;;;;;;;;;2616777;54;20898;-79
2024/01/09 04:28:00;;;;;;;10.43;9.50;;;;;;;;;;2615482;54;20404;-80
2024/01/09 04:33:33;;;;;;;10.53;9.43;;;;;;;;;;2617615;54;20370;-78
2024/01/09 04:39:02;;;;;;;10.90;10.00;;;;;;;;;;2614324;54;20397;-75
2024/01/09 04:44:36;;;;;;;10.97;9.93;;;;;;;;;;2614906;54;20412;-75
2024/01/09 04:50:07;;;;;;;11.73;10.70;;;;;;;;;;2615052;39;20482;-75
2024/01/09 04:59:18;;;;;;;10.80;9.97;;;;;;;;;;2613766;54;20434;-75
2024/01/09 05:04:47;;;;;;;9.50;9.00;;;;;;;;;;2613864;54;20992;-76
2024/01/09 05:10:17;;;;;;;11.20;10.13;;;;;;;;;;2614412;54;20990;-75
2024/01/09 05:15:47;;;;;;;11.57;10.70;;;;;;;;;;2613440;54;20372;-75
2024/01/09 05:21:17;;;;;;;11.57;10.37;;;;;;;;;;2614252;54;20362;-75
2024/01/09 05:26:46;;;;;;;10.07;9.27;;;;;;;;;;2614868;54;20485;-75
2024/01/09 05:32:16;;;;;;;12.87;11.43;;;;;;;;;;2615249;39;20753;-75
2024/01/09 05:37:45;;;;;;;12.13;10.50;;;;;;;;;;2614137;54;20398;-75
2024/01/09 05:43:16;;;;;;;11.83;10.87;;;;;;;;;;2614688;54;20994;-75
2024/01/09 05:48:45;;;;;;;10.67;9.87;;;;;;;;;;2613829;54;20414;-79
2024/01/09 05:54:15;;;;;;;11.03;9.93;;;;;;;;;;2614982;39;20806;-78
2024/01/09 05:59:45;;;;;;;12.10;10.90;;;;;;;;;;2613789;54;21023;-76
2024/01/09 06:05:14;;;;;;;15.93;10.67;;;;;;;;;;2613577;54;20369;-76
2024/01/09 06:10:44;;;;;;;11.60;10.40;;;;;;;;;;2615853;54;20380;-79
2024/01/09 06:16:14;;;;;;;16.43;10.77;;;;;;;;;;2616746;54;20435;-80
2024/01/09 06:21:44;;;;;;;11.07;10.17;;;;;;;;;;2614138;54;20393;-77
2024/01/09 06:27:14;;;;;;;10.70;9.70;;;;;;;;;;2614678;54;20394;-78
2024/01/09 06:32:44;;;;;;;10.37;9.77;;;;;;;;;;2615985;54;20359;-80
2024/01/09 06:38:16;;;;;;;11.80;10.80;;;;;;;;;;2616487;54;20379;-79
2024/01/09 06:43:46;;;;;;;11.40;10.40;;;;;;;;;;2616237;54;20378;-79
2024/01/09 06:49:16;;;;;;;11.40;10.30;;;;;;;;;;2615804;54;20369;-78
2024/01/09 06:54:46;;;;;;;15.03;12.10;;;;;;;;;;2614560;54;20412;-77
2024/01/09 07:00:16;;;;;;;12.90;11.90;;;;;;;;;;2614140;39;20800;-75
2024/01/09 07:05:47;;;;;;;10.63;9.83;;;;;;;;;;2614754;54;20373;-75
2024/01/09 07:08:33;;;;;;;11.93;10.83;;;;;;;;;;2614126;47;20431;-77
2024/01/09 07:10:59;;;;;;;12.20;10.40;;;;;;;;;;2612676;54;20419;-74
2024/01/09 07:16:30;;;;;;;9.47;8.70;;;;;;;;;;2614699;54;21019;-78
2024/01/09 07:22:00;;;;;;;12.27;11.27;;;;;;;;;;2613935;54;20409;-78
2024/01/09 07:27:32;;;;;;;15.13;9.97;;;;;;;;;;2615908;39;20742;-76
2024/01/09 07:33:01;;;;;;;14.00;12.60;;;;;;;;;;2616875;31;20890;-76
2024/01/09 07:38:31;;;;;;;14.20;12.90;;;;;;;;;;2616951;54;20378;-77
2024/01/09 07:44:01;;;;;;;13.27;11.77;;;;;;;;;;2615914;54;20393;-76
2024/01/09 07:49:31;;;;;;;11.67;10.63;;;;;;;;;;2616384;54;20383;-77
2024/01/09 08:01:08;;;;;;;15.00;13.47;;;;;;;;;;2613868;54;20417;-78
2024/01/09 08:06:38;;;;;;;12.43;11.23;;;;;;;;;;2614216;54;21100;-78
2024/01/09 08:12:08;;;;;;;10.30;9.43;;;;;;;;;;2614115;54;20372;-78
2024/01/09 08:17:37;;;;;;;13.43;12.03;;;;;;;;;;2613002;54;20359;-77
2024/01/09 08:23:07;;;;;;;11.27;9.93;;;;;;;;;;2614332;54;20398;-78
2024/01/09 08:28:38;;;;;;;13.40;11.73;;;;;;;;;;2616170;54;20411;-75
2024/01/09 08:34:08;;;;;;;12.80;11.60;;;;;;;;;;2616208;54;20403;-78
2024/01/09 08:39:38;;;;;;;12.90;11.53;;;;;;;;;;2617504;39;20733;-77
2024/01/09 08:45:11;;;;;;;13.93;12.80;;;;;;;;;;2617451;54;20409;-77
2024/01/09 08:50:40;;;;;;;13.97;12.83;;;;;;;;;;2615373;54;20379;-77
2024/01/09 08:59:48;;;;;;;16.17;13.00;;;;;;;;;;2615436;54;20389;-76
2024/01/09 09:02:15;;;;;;;13.10;12.13;;;;;;;;;;2616170;54;20412;-77
2024/01/09 09:07:45;;;;;;;14.43;12.93;;;;;;;;;;2615589;54;20416;-78
2024/01/09 09:13:15;;;;;;;14.53;13.43;;;;;;;;;;2615268;54;20365;-76
2024/01/09 09:18:45;;;;;;;14.30;13.30;;;;;;;;;;2615099;54;20395;-78
2024/01/09 09:24:15;;;;;;;14.00;13.07;;;;;;;;;;2616252;39;20784;-77
2024/01/09 09:29:44;;;;;;;13.37;12.17;;;;;;;;;;2615361;54;20398;-76
2024/01/09 09:35:14;;;;;;;15.80;14.60;;;;;;;;;;2615679;54;20391;-77
2024/01/09 09:40:44;;;;;;;14.10;13.03;;;;;;;;;;2614731;54;20427;-79
2024/01/09 09:46:17;;;;;;;14.37;13.23;;;;;;;;;;2613923;39;20768;-79
2024/01/09 09:51:48;;;;;;;16.87;15.40;;;;;;;;;;2613742;54;20382;-79
2024/01/09 10:00:49;;;;;;;14.90;13.93;;;;;;;;;;2613673;54;20374;-79
2024/01/09 10:06:19;;;;;;;15.03;13.93;;;;;;;;;;2613942;54;20466;-79
2024/01/09 10:11:50;;;;;;;16.20;14.80;;;;;;;;;;2613705;54;20350;-79
2024/01/09 10:17:19;;;;;;;15.43;14.33;;;;;;;;;;2613772;54;20902;-80
2024/01/09 10:22:49;;;;;;;16.30;14.97;;;;;;;;;;2613311;54;20387;-80
2024/01/09 10:28:19;;;;;;;13.80;12.90;;;;;;;;;;2615066;54;20405;-77
2024/01/09 10:33:49;;;;;;;14.73;13.63;;;;;;;;;;2614094;54;20413;-77
2024/01/09 10:39:19;;;;;;;14.73;13.77;;;;;;;;;;2615398;39;20779;-79
2024/01/09 10:44:48;;;;;;;14.00;13.00;;;;;;;;;;2614631;31;20878;-79
2024/01/09 10:50:19;;;;;;;13.93;12.57;;;;;;;;;;2615295;54;21235;-76
2024/01/09 10:55:50;;;;;;;13.50;12.60;;;;;;;;;;2616386;54;20383;-75
2024/01/09 11:01:20;;;;;;;14.90;13.63;;;;;;;;;;2614233;54;20399;-79
2024/01/09 11:06:50;;;;;;;13.03;12.13;;;;;;;;;;2615636;39;20770;-78
2024/01/09 11:12:32;;;;;;;15.00;14.00;;;;;;;;;;2614626;54;20368;-78
2024/01/09 11:18:10;;;;;;;14.93;13.93;;;;;;;;;;2614728;54;20413;-78
2024/01/09 11:23:42;;;;;;;14.30;13.50;;;;;;;;;;2615038;54;20427;-79
2024/01/09 11:29:17;;;;;;;13.90;12.90;;;;;;;;;;2615844;54;20384;-79
2024/01/09 11:34:47;;;;;;;13.43;12.63;;;;;;;;;;2615752;54;20412;-79
2024/01/09 11:40:18;;;;;;;14.57;13.57;;;;;;;;;;2615665;54;20395;-79
2024/01/09 11:45:49;;;;;;;15.50;14.27;;;;;;;;;;2615948;54;20451;-78
2024/01/09 11:51:19;;;;;;;14.30;13.17;;;;;;;;;;2615081;54;20376;-78
2024/01/09 12:02:56;;;;;;;14.67;13.63;;;;;;;;;;2615433;54;20376;-79
2024/01/09 12:08:26;;;;;;;14.60;13.60;;;;;;;;;;2616390;54;20377;-79
2024/01/09 12:14:00;;;;;;;15.40;14.50;;;;;;;;;;2617571;54;20399;-78
2024/01/09 12:19:29;;;;;;;11.97;11.13;;;;;;;;;;2614954;54;20473;-78
2024/01/09 12:22:17;;;;;;;12.77;11.93;;;;;;;;;;2614828;39;20836;-76
2024/01/09 12:24:44;;;;;;;13.00;12.20;;;;;;;;;;2613636;54;20441;-74
2024/01/09 12:30:13;;;;;;;13.10;12.30;;;;;;;;;;2613062;54;20403;-73
2024/01/09 12:35:44;;;;;;;11.80;10.97;;;;;;;;;;2613703;54;20394;-73
2024/01/09 12:41:20;;;;;;;13.80;12.53;;;;;;;;;;2614096;54;20393;-73
2024/01/09 12:46:50;;;;;;;11.70;10.90;;;;;;;;;;2613633;54;20412;-74
2024/01/09 12:52:20;;;;;;;13.33;10.00;;;;;;;;;;2613528;54;20407;-77
2024/01/09 13:01:28;;;;;;;11.20;10.50;;;;;;;;;;2614470;54;20418;-75
2024/01/09 13:06:58;;;;;;;13.03;12.23;;;;;;;;;;2614142;54;20405;-73
2024/01/09 13:12:27;;;;;;;12.70;11.77;;;;;;;;;;2613612;54;20422;-74
2024/01/09 13:17:58;;;;;;;13.20;12.30;;;;;;;;;;2613934;54;20377;-75
2024/01/09 13:23:28;;;;;;;13.00;12.07;;;;;;;;;;2612348;54;20373;-73
2024/01/09 13:28:58;;;;;;;12.93;11.77;;;;;;;;;;2612588;54;20517;-74
2024/01/09 13:34:29;;;;;;;12.97;12.07;;;;;;;;;;2612944;54;20379;-74
2024/01/09 13:40:00;;;;;;;12.13;11.37;;;;;;;;;;2613837;54;20447;-76
2024/01/09 13:45:30;;;;;;;12.00;11.10;;;;;;;;;;2613025;54;20867;-77
2024/01/09 13:51:00;;;;;;;14.30;13.30;;;;;;;;;;2612821;54;20387;-75
2024/01/09 13:56:31;;;;;;;14.10;13.20;;;;;;;;;;2613394;54;20390;-75
2024/01/09 14:02:01;;;;;;;12.30;11.53;;;;;;;;;;2612753;54;20505;-73
2024/01/09 14:07:31;;;;;;;12.73;11.87;;;;;;;;;;2613056;54;20380;-73
2024/01/09 14:13:00;;;;;;;14.70;13.30;;;;;;;;;;2613655;54;20382;-73
2024/01/09 14:18:31;;;;;;;13.90;12.90;;;;;;;;;;2613020;39;20737;-74
2024/01/09 14:24:02;;;;;;;13.53;12.43;;;;;;;;;;2611531;54;20378;-73
2024/01/09 14:29:33;;;;;;;15.30;14.10;;;;;;;;;;2612481;54;20386;-74
2024/01/09 14:35:05;;;;;;;13.00;12.00;;;;;;;;;;2612536;54;20387;-75
2024/01/09 14:40:35;;;;;;;12.40;11.60;;;;;;;;;;2613005;54;20483;-74
2024/01/09 14:46:05;;;;;;;15.00;13.80;;;;;;;;;;2613037;54;20909;-73
2024/01/09 14:51:36;;;;;;;13.83;13.03;;;;;;;;;;2611215;54;20371;-76
2024/01/09 14:57:08;;;;;;;16.13;14.77;;;;;;;;;;2612792;54;20370;-76
2024/01/09 15:06:16;;;;;;;14.33;13.33;;;;;;;;;;2611564;39;20774;-75
2024/01/09 15:11:45;;;;;;;14.97;13.63;;;;;;;;;;2611435;54;20425;-77
2024/01/09 15:17:15;;;;;;;14.90;13.70;;;;;;;;;;2612604;39;20862;-76
2024/01/09 15:22:45;;;;;;;14.50;13.13;;;;;;;;;;2612591;54;20388;-76
2024/01/09 15:28:17;;;;;;;15.17;14.07;;;;;;;;;;2612132;54;20367;-76
2024/01/09 15:33:47;;;;;;;14.83;13.63;;;;;;;;;;2612637;54;20404;-77
2024/01/09 15:39:17;;;;;;;12.83;12.00;;;;;;;;;;2613052;54;20378;-77
2024/01/09 15:44:48;;;;;;;12.73;11.77;;;;;;;;;;2612416;54;21033;-76
2024/01/09 15:50:18;;;;;;;13.77;12.57;;;;;;;;;;2613493;54;20844;-77
2024/01/09 15:55:49;;;;;;;12.13;11.40;;;;;;;;;;2612696;54;20362;-76
2024/01/09 16:01:21;;;;;;;14.37;13.27;;;;;;;;;;2613312;54;20477;-76
2024/01/09 16:06:51;;;;;;;14.87;13.47;;;;;;;;;;2612399;54;20383;-76
2024/01/09 16:12:21;;;;;;;14.93;13.93;;;;;;;;;;2613827;54;20371;-75
2024/01/09 16:17:50;;;;;;;13.53;12.43;;;;;;;;;;2613809;54;20420;-77
2024/01/09 16:23:20;;;;;;;15.60;14.40;;;;;;;;;;2612381;54;20392;-75
2024/01/09 16:28:50;;;;;;;14.60;13.40;;;;;;;;;;2613909;54;20387;-74
2024/01/09 16:34:22;;;;;;;16.07;14.73;;;;;;;;;;2612922;39;21208;-73
2024/01/09 16:39:51;;;;;;;14.40;13.20;;;;;;;;;;2613637;54;20370;-74
2024/01/09 16:45:21;;;;;;;20.10;16.93;;;;;;;;;;2614759;54;20439;-75
2024/01/09 16:50:52;;;;;;;16.37;14.97;;;;;;;;;;2614347;54;20401;-77
2024/01/09 16:56:23;;;;;;;14.80;13.60;;;;;;;;;;2613026;54;20432;-76
2024/01/09 17:01:54;;;;;;;16.60;15.10;;;;;;;;;;2612023;54;20366;-77
2024/01/09 17:07:43;;;;;;;15.50;13.90;;;;;;;;;;2610991;54;20929;-77
2024/01/09 17:13:16;;;;;;;15.87;14.37;;;;;;;;;;2612545;54;20417;-77
2024/01/09 17:18:46;;;;;;;13.93;13.00;;;;;;;;;;2611877;54;20394;-77
2024/01/09 17:24:15;;;;;;;15.80;14.27;;;;;;;;;;2610891;54;20386;-78
2024/01/09 17:29:44;;;;;;;17.10;15.50;;;;;;;;;;2612425;54;20399;-77
2024/01/09 17:35:13;;;;;;;14.17;13.10;;;;;;;;;;2613148;39;21219;-76
2024/01/09 17:40:44;;;;;;;16.30;14.73;;;;;;;;;;2614620;54;20423;-75
2024/01/09 17:46:14;;;;;;;14.53;13.43;;;;;;;;;;2612387;54;20377;-75
2024/01/09 17:51:46;;;;;;;16.37;15.13;;;;;;;;;;2614022;54;20956;-77
2024/01/09 17:57:17;;;;;;;16.33;15.03;;;;;;;;;;2612826;54;20388;-77
2024/01/09 18:06:20;;;;;;;14.20;13.00;;;;;;;;;;2613623;54;20437;-79
2024/01/09 18:09:05;;;;;;;16.23;14.93;;;;;;;;;;2614112;54;20390;-76
2024/01/09 18:11:34;;;;;;;18.07;14.97;;;;;;;;;;2613915;47;20414;-78
2024/01/09 18:17:05;;;;;;;16.80;15.30;;;;;;;;;;2614087;54;20370;-77
2024/01/09 18:22:36;;;;;;;16.77;14.77;;;;;;;;;;2612517;54;20945;-76
2024/01/09 18:28:07;;;;;;;15.40;14.10;;;;;;;;;;2612813;54;20373;-78
2024/01/09 18:33:37;;;;;;;17.03;15.20;;;;;;;;;;2613127;54;20453;-77
2024/01/09 18:39:07;;;;;;;14.83;13.27;;;;;;;;;;2613223;54;20420;-78
2024/01/09 18:44:37;;;;;;;16.57;15.27;;;;;;;;;;2614142;54;20391;-77
2024/01/09 18:50:08;;;;;;;16.27;14.70;;;;;;;;;;2613967;54;20455;-75
2024/01/09 18:55:37;;;;;;;14.77;13.77;;;;;;;;;;2613580;54;20421;-75
2024/01/09 19:01:07;;;;;;;16.13;14.57;;;;;;;;;;2613401;54;20367;-73
2024/01/09 19:06:38;;;;;;;13.10;12.20;;;;;;;;;;2613006;54;20362;-75
2024/01/09 19:12:07;;;;;;;15.93;14.50;;;;;;;;;;2614236;54;20370;-74
2024/01/09 19:17:38;;;;;;;17.73;16.13;;;;;;;;;;2614223;54;20503;-74
2024/01/09 19:23:07;;;;;;;18.13;16.17;;;;;;;;;;2613152;54;20409;-74
2024/01/09 19:28:37;;;;;;;22.33;17.70;;;;;;;;;;2613212;54;20369;-74
2024/01/09 19:34:08;;;;;;;18.67;14.57;;;;;;;;;;2613492;54;20474;-74
2024/01/09 19:39:44;;;;;;;20.90;16.37;;;;;;;;;;2613265;54;20945;-74
2024/01/09 19:45:15;;;;;;;17.60;15.80;;;;;;;;;;2613636;54;20383;-74
2024/01/09 19:50:45;;;;;;;17.00;15.60;;;;;;;;;;2613866;54;20378;-73
2024/01/09 20:08:21;;;;;;;15.67;14.30;;;;;;;;;;2614702;54;20383;-77
2024/01/09 20:13:52;;;;;;;17.37;15.63;;;;;;;;;;2613198;54;20334;-74
2024/01/09 20:19:22;;;;;;;21.23;14.33;;;;;;;;;;2611538;54;20446;-74
2024/01/09 20:24:53;;;;;;;16.80;13.23;;;;;;;;;;2613264;54;20394;-73
2024/01/09 20:30:24;;;;;;;14.77;13.23;;;;;;;;;;2613331;39;20760;-76
2024/01/09 20:35:54;;;;;;;16.43;14.87;;;;;;;;;;2614832;54;20412;-74
2024/01/09 20:41:24;;;;;;;21.60;18.73;;;;;;;;;;2614870;54;20545;-75
2024/01/09 20:46:54;;;;;;;23.13;18.80;;;;;;;;;;2612835;54;20362;-75
2024/01/09 20:52:26;;;;;;;17.37;15.77;;;;;;;;;;2613656;54;20397;-76
2024/01/09 20:57:55;;;;;;;18.17;16.37;;;;;;;;;;2612224;54;20449;-75
2024/01/09 21:07:01;;;;;;;17.73;16.00;;;;;;;;;;2612527;54;21005;-75
2024/01/09 21:12:32;;;;;;;17.47;16.03;;;;;;;;;;2612410;54;20403;-78
2024/01/09 21:18:01;;;;;;;19.23;15.87;;;;;;;;;;2613059;54;20394;-77
2024/01/09 21:23:31;;;;;;;19.43;15.20;;;;;;;;;;2612157;54;20486;-78
2024/01/09 21:29:01;;;;;;;20.30;16.00;;;;;;;;;;2611927;54;20358;-75
2024/01/09 21:34:31;;;;;;;17.33;15.77;;;;;;;;;;2614540;54;20504;-77
2024/01/09 21:40:06;;;;;;;16.77;15.00;;;;;;;;;;2614335;54;20407;-77
2024/01/09 21:45:38;;;;;;;17.67;13.23;;;;;;;;;;2613769;39;21255;-78
2024/01/09 21:51:08;;;;;;;16.97;14.30;;;;;;;;;;2612777;54;20398;-77
2024/01/09 21:56:38;;;;;;;15.80;14.60;;;;;;;;;;2613485;54;20366;-77
2024/01/09 22:02:08;;;;;;;15.00;13.70;;;;;;;;;;2612344;54;20902;-76
2024/01/09 22:07:39;;;;;;;17.47;14.43;;;;;;;;;;2613293;54;20445;-79
2024/01/09 22:13:09;;;;;;;17.23;15.60;;;;;;;;;;2612966;54;20393;-78
2024/01/09 22:18:38;;;;;;;16.23;15.00;;;;;;;;;;2612288;54;20471;-77
2024/01/09 22:24:11;;;;;;;14.63;13.10;;;;;;;;;;2612344;54;20940;-77
2024/01/09 22:29:40;;;;;;;15.53;14.33;;;;;;;;;;2613550;54;20357;-77
2024/01/09 22:35:10;;;;;;;15.57;14.27;;;;;;;;;;2611294;54;20370;-77
2024/01/09 22:40:40;;;;;;;14.33;13.07;;;;;;;;;;2612713;54;20377;-78
2024/01/09 22:46:10;;;;;;;15.37;14.07;;;;;;;;;;2614409;31;21009;-78
2024/01/09 22:51:39;;;;;;;15.70;14.30;;;;;;;;;;2613562;54;20383;-77
2024/01/09 22:57:09;;;;;;;16.07;14.60;;;;;;;;;;2614452;54;20390;-77
2024/01/09 23:02:39;;;;;;;16.80;15.13;;;;;;;;;;2613554;54;20397;-78
2024/01/09 23:14:17;;;;;;;17.30;15.13;;;;;;;;;;2613958;54;20912;-77
2024/01/09 23:19:46;;;;;;;15.10;13.17;;;;;;;;;;2614629;54;20370;-79
2024/01/09 23:25:18;;;;;;;15.00;13.53;;;;;;;;;;2614681;54;20368;-78
2024/01/09 23:30:48;;;;;;;16.00;14.50;;;;;;;;;;2611821;54;20404;-75
2024/01/09 23:36:17;;;;;;;13.03;11.97;;;;;;;;;;2609775;54;20362;-74
2024/01/09 23:41:48;;;;;;;13.33;12.23;;;;;;;;;;2611812;39;20761;-75
2024/01/09 23:47:17;;;;;;;14.47;13.40;;;;;;;;;;2611230;54;20397;-74
2024/01/09 23:52:47;;;;;;;13.37;12.20;;;;;;;;;;2609910;39;20757;-76
2024/01/09 23:58:17;;;;;;;13.93;13.03;;;;;;;;;;2610320;54;20397;-74
